首页
METAR-TAF:

METAR-TAF

机场 :

Ottawa, 堪薩斯州, 美国

纬度: 38-32-20N, 经度: 095-15-10W, 海拔: 295米

当前天气观测

该预报发布于19分钟前的17:30 UTC
风速28节,风向南转西南,有时为37节阵风
温度 22°C
湿度 23%
气压 999 hPa
能見度: 16.1公里
天空无云

METAR: KOWI 281730Z AUTO 21028G37KT 10SM CLR 22/M00 A2950 RMK AO2

时间: 12:49 (17:49 UTC)


TAF: 丢失

超过4000个机场的气象观测和天气预报(METAR&TAF报告)。

可查询的气象台以黄色和红色小点在地图上表示。

将鼠标移到小点上方,可查看气象台名称。

然后点击查看天气观测和预报。

如需切换地图:点击带黑十字的绿色按钮放大地图;点击带横线的绿色按钮缩小地图;或者点击绿色箭头查看邻近地区的地图。


METAR-TAF: